Terminal Aerodrome Forecast
Issued by NWS

Home | Current Version | Previous Version | Text Only | Print | Product List | Glossary On
Versions: 1 2 3 4 5 6 7 8 9 10 11 12 13 14 15 16 17 18 19 20 21 22 23 24
000
FTUS45 KPSR 180500
TAFPHX
TAF
KPHX 180521Z 1806/1906 10006KT P6SM SCT050 BKN060 BKN100
     FM181400 VRB05KT P6SM VCSH SCT040 BKN060 OVC100
     FM182100 25006KT P6SM SCT050 BKN080 BKN120
     FM190400 10005KT P6SM FEW200=

USA.gov is the U.S. government's official web portal to all federal, state and local government web resources and services.